createdAt,value
2019-01-26T00:00:03.256Z,81.95
2019-01-26T00:01:03.245Z,81.84
2019-01-26T00:02:03.234Z,82.89
2019-01-26T00:03:03.230Z,82.68
2019-01-26T00:04:03.213Z,82.89
2019-01-26T00:05:03.202Z,82.37
2019-01-26T00:06:03.191Z,82.75
2019-01-26T00:07:03.183Z,83.21
2019-01-26T00:08:03.173Z,83.11
2019-01-26T00:09:03.164Z,83.11
2019-01-26T00:10:03.148Z,83.00
2019-01-26T00:11:03.147Z,83.21
2019-01-26T00:12:03.131Z,83.53
2019-01-26T00:13:03.122Z,83.63
2019-01-26T00:14:03.149Z,83.28
2019-01-26T00:15:03.103Z,83.07
2019-01-26T00:16:03.087Z,83.53
2019-01-26T00:17:03.078Z,83.59
2019-01-26T00:18:03.067Z,83.95
2019-01-26T00:19:03.058Z,83.70
2019-01-26T00:20:03.047Z,83.95
2019-01-26T00:21:03.034Z,83.95
2019-01-26T00:22:03.025Z,84.27
2019-01-26T00:23:03.017Z,84.12
2019-01-26T00:24:03.004Z,84.12
2019-01-26T00:25:02.991Z,84.33
2019-01-26T00:26:02.982Z,83.81
2019-01-26T00:27:02.970Z,84.54
2019-01-26T00:28:02.963Z,84.65
2019-01-26T00:29:02.954Z,84.86
2019-01-26T00:30:02.940Z,84.96
2019-01-26T00:31:02.929Z,85.07
2019-01-26T00:32:02.920Z,84.96
2019-01-26T00:33:02.907Z,85.28
2019-01-26T00:34:02.897Z,85.49
2019-01-26T00:35:02.888Z,86.12
2019-01-26T00:36:02.880Z,85.70
2019-01-26T00:37:02.867Z,85.70
2019-01-26T00:38:02.854Z,85.70
2019-01-26T00:39:02.845Z,85.60
2019-01-26T00:40:02.835Z,86.33
2019-01-26T00:41:02.825Z,85.49
2019-01-26T00:42:02.814Z,85.49
2019-01-26T00:43:02.803Z,86.08
2019-01-26T00:44:02.793Z,85.28
2019-01-26T00:45:02.782Z,85.77
2019-01-26T00:46:02.770Z,85.91
2019-01-26T00:47:02.762Z,86.12
2019-01-26T00:48:02.750Z,86.19
2019-01-26T00:49:02.742Z,86.12
2019-01-26T00:50:02.728Z,85.97
2019-01-26T00:51:02.719Z,86.08
2019-01-26T00:52:02.708Z,86.19
2019-01-26T00:53:02.700Z,86.51
2019-01-26T00:54:02.691Z,86.93
2019-01-26T00:55:02.677Z,86.82
2019-01-26T00:56:02.666Z,86.61
2019-01-26T00:57:02.655Z,86.71
2019-01-26T00:58:02.647Z,87.45
2019-01-26T00:59:02.669Z,87.35
2019-01-26T01:00:02.624Z,86.71
2019-01-26T01:01:02.615Z,87.35
2019-01-26T01:02:02.605Z,87.45
2019-01-26T01:03:02.596Z,87.24
2019-01-26T01:04:02.582Z,87.45
2019-01-26T01:05:02.573Z,87.13
2019-01-26T01:06:02.563Z,87.35
2019-01-26T01:07:02.555Z,87.45
2019-01-26T01:08:02.543Z,87.45
2019-01-26T01:09:02.528Z,87.55
2019-01-26T01:10:02.520Z,87.30
2019-01-26T01:11:02.512Z,87.45
2019-01-26T01:12:02.502Z,87.30
2019-01-26T01:13:02.489Z,87.30
2019-01-26T01:14:02.480Z,86.99
2019-01-26T01:15:02.468Z,87.62
2019-01-26T01:16:02.458Z,87.76
2019-01-26T01:17:02.447Z,87.62
2019-01-26T01:18:02.434Z,87.83
2019-01-26T01:19:02.426Z,87.52
2019-01-26T01:20:02.414Z,87.52
2019-01-26T01:21:02.501Z,87.62
2019-01-26T01:22:02.395Z,88.04
2019-01-26T01:23:02.382Z,87.93
2019-01-26T01:24:02.376Z,87.93
2019-01-26T01:25:02.361Z,88.04
2019-01-26T01:26:02.352Z,88.57
2019-01-26T01:27:02.344Z,89.09
2019-01-26T01:28:02.330Z,88.57
2019-01-26T01:29:02.320Z,89.09
2019-01-26T01:30:02.311Z,89.09
2019-01-26T01:31:02.299Z,88.99
2019-01-26T01:32:02.288Z,89.20
2019-01-26T01:33:02.278Z,89.30
2019-01-26T01:34:02.266Z,89.41
2019-01-26T01:35:02.257Z,89.94
2019-01-26T01:36:02.247Z,90.04
2019-01-26T01:37:02.234Z,89.62
2019-01-26T01:38:02.227Z,89.94
2019-01-26T01:39:02.216Z,90.36
2019-01-26T01:40:02.205Z,90.56
2019-01-26T01:41:02.193Z,90.88
2019-01-26T01:42:02.184Z,91.62
2019-01-26T01:43:02.174Z,91.30
2019-01-26T01:44:02.162Z,91.30
2019-01-26T01:45:02.151Z,91.83
2019-01-26T01:46:02.142Z,92.25
2019-01-26T01:47:02.133Z,92.14
2019-01-26T01:48:02.119Z,92.35
2019-01-26T01:49:02.110Z,92.04
2019-01-26T01:50:02.100Z,92.14
2019-01-26T01:51:02.090Z,92.46
2019-01-26T01:52:02.080Z,92.77
2019-01-26T01:53:02.069Z,93.09
2019-01-26T01:54:02.057Z,92.57
2019-01-26T01:55:02.046Z,92.88
2019-01-26T01:56:02.037Z,93.62
2019-01-26T01:57:02.027Z,93.19
2019-01-26T01:58:02.017Z,93.30
2019-01-26T01:59:02.007Z,93.34
2019-01-26T02:00:01.998Z,93.62
2019-01-26T02:01:02.031Z,93.72
2019-01-26T02:02:01.973Z,93.93
2019-01-26T02:03:01.965Z,93.83
2019-01-26T02:04:01.954Z,93.72
2019-01-26T02:05:01.947Z,93.83
2019-01-26T02:06:01.932Z,93.51
2019-01-26T02:07:01.925Z,93.83
2019-01-26T02:08:01.912Z,93.83
2019-01-26T02:09:01.902Z,93.51
2019-01-26T02:10:01.892Z,93.83
2019-01-26T02:11:01.881Z,93.93
2019-01-26T02:12:01.870Z,94.46
2019-01-26T02:13:01.862Z,93.83
2019-01-26T02:14:01.850Z,94.46
2019-01-26T02:15:01.840Z,94.56
2019-01-26T02:16:01.829Z,93.83
2019-01-26T02:17:01.819Z,93.83
2019-01-26T02:18:01.806Z,93.51
2019-01-26T02:19:01.803Z,93.51
2019-01-26T02:20:01.786Z,93.83
2019-01-26T02:21:01.776Z,93.79
2019-01-26T02:22:01.768Z,93.51
2019-01-26T02:23:01.754Z,94.04
2019-01-26T02:24:01.744Z,93.79
2019-01-26T02:25:01.739Z,93.62
2019-01-26T02:26:01.799Z,93.51
2019-01-26T02:27:01.710Z,93.68
2019-01-26T02:28:01.703Z,93.57
2019-01-26T02:29:01.691Z,93.57
2019-01-26T02:30:01.681Z,93.37
2019-01-26T02:31:01.669Z,93.37
2019-01-26T02:32:01.693Z,93.68
2019-01-26T02:33:01.648Z,93.68
2019-01-26T02:34:01.639Z,93.68
2019-01-26T02:35:01.629Z,93.68
2019-01-26T02:36:01.618Z,93.57
2019-01-26T02:37:01.608Z,93.68
2019-01-26T02:38:01.595Z,93.79
2019-01-26T02:39:01.587Z,94.84
2019-01-26T02:40:01.597Z,94.42
2019-01-26T02:41:01.566Z,94.31
2019-01-26T02:42:01.555Z,94.31
2019-01-26T02:43:01.548Z,94.62
2019-01-26T02:44:01.537Z,94.62
2019-01-26T02:45:01.524Z,94.84
2019-01-26T02:46:01.516Z,94.90
2019-01-26T02:47:01.504Z,94.94
2019-01-26T02:48:01.495Z,95.68
2019-01-26T02:49:01.481Z,95.78
2019-01-26T02:50:01.474Z,95.89
2019-01-26T02:51:01.462Z,95.99
2019-01-26T02:52:01.452Z,96.94
2019-01-26T02:53:01.524Z,96.73
2019-01-26T02:54:01.429Z,96.73
2019-01-26T02:55:01.419Z,97.05
2019-01-26T02:56:01.408Z,96.62
2019-01-26T02:57:01.399Z,96.83
2019-01-26T02:58:01.389Z,96.56
2019-01-26T02:59:01.378Z,97.30
2019-01-26T03:00:01.385Z,97.25
2019-01-26T03:01:01.356Z,97.36
2019-01-26T03:02:01.344Z,97.47
2019-01-26T03:03:01.334Z,97.67
2019-01-26T03:04:01.325Z,97.67
2019-01-26T03:05:01.318Z,97.61
2019-01-26T03:06:01.306Z,98.56
2019-01-26T03:07:01.291Z,98.20
2019-01-26T03:08:01.280Z,98.20
2019-01-26T03:09:01.271Z,97.88
2019-01-26T03:10:01.267Z,97.88
2019-01-26T03:11:01.251Z,98.41
2019-01-26T03:12:01.242Z,98.14
2019-01-26T03:13:01.231Z,98.30
2019-01-26T03:14:01.220Z,97.99
2019-01-26T03:15:01.212Z,98.66
2019-01-26T03:16:01.198Z,98.10
2019-01-26T03:17:05.790Z,98.66
2019-01-26T03:18:02.175Z,98.77
2019-01-26T03:19:01.168Z,98.62
2019-01-26T03:20:01.161Z,98.77
2019-01-26T03:21:01.146Z,98.20
2019-01-26T03:22:01.136Z,98.35
2019-01-26T03:23:01.126Z,98.30
2019-01-26T03:24:01.119Z,98.77
2019-01-26T03:25:01.104Z,98.62
2019-01-26T03:26:01.097Z,98.52
2019-01-26T03:27:01.082Z,98.94
2019-01-26T03:28:01.072Z,98.94
2019-01-26T03:29:01.066Z,98.94
2019-01-26T03:30:01.052Z,98.98
2019-01-26T03:31:01.064Z,99.46
2019-01-26T03:32:01.032Z,99.36
2019-01-26T03:33:01.022Z,98.94
2019-01-26T03:34:01.011Z,99.15
2019-01-26T03:35:01.000Z,99.25
2019-01-26T03:36:00.997Z,99.36
2019-01-26T03:37:00.979Z,98.72
2019-01-26T03:38:00.966Z,99.15
2019-01-26T03:39:00.956Z,99.46
2019-01-26T03:40:00.979Z,99.67
2019-01-26T03:41:00.938Z,99.78
2019-01-26T03:42:00.927Z,99.57
2019-01-26T03:43:00.918Z,99.78
2019-01-26T03:44:00.905Z,99.46
2019-01-26T03:45:00.895Z,99.25
2019-01-26T03:46:00.887Z,99.57
2019-01-26T03:47:00.875Z,99.57
2019-01-26T03:48:00.864Z,99.57
2019-01-26T03:49:00.852Z,99.57
2019-01-26T03:50:00.845Z,99.25
2019-01-26T03:51:00.838Z,99.46
2019-01-26T03:52:00.823Z,99.46
2019-01-26T03:53:00.813Z,99.57
2019-01-26T03:54:00.801Z,99.36
2019-01-26T03:55:00.839Z,99.36
2019-01-26T03:56:00.781Z,99.36
2019-01-26T03:57:00.770Z,99.31
2019-01-26T03:58:00.757Z,99.57
2019-01-26T03:59:00.747Z,99.41
2019-01-26T04:00:00.739Z,99.52
2019-01-26T04:01:00.727Z,99.57
2019-01-26T04:02:00.725Z,99.63
2019-01-26T04:03:00.706Z,99.67
2019-01-26T04:04:00.695Z,99.63
2019-01-26T04:05:00.705Z,99.52
2019-01-26T04:06:00.674Z,99.63
2019-01-26T04:07:00.667Z,99.25
2019-01-26T04:08:00.658Z,99.41
2019-01-26T04:09:00.645Z,99.41
2019-01-26T04:10:00.632Z,99.84
2019-01-26T04:11:00.621Z,99.95
2019-01-26T04:12:00.610Z,99.99
2019-01-26T04:13:00.600Z,99.95
2019-01-26T04:14:00.588Z,99.99
2019-01-26T04:15:00.584Z,99.99
2019-01-26T04:16:00.569Z,99.99
2019-01-26T04:17:00.559Z,99.99
2019-01-26T04:18:00.549Z,99.99
2019-01-26T04:19:00.536Z,99.99
2019-01-26T04:20:00.531Z,99.99
2019-01-26T04:21:00.519Z,99.95
2019-01-26T04:22:00.507Z,99.99
2019-01-26T04:23:00.504Z,99.69
2019-01-26T04:24:00.488Z,99.99
2019-01-26T04:25:00.476Z,99.99
2019-01-26T04:26:00.464Z,99.99
2019-01-26T04:27:00.459Z,99.99
2019-01-26T04:28:00.445Z,99.99
2019-01-26T04:29:00.443Z,99.99
2019-01-26T04:30:00.430Z,99.99
2019-01-26T04:31:00.414Z,99.99
2019-01-26T04:32:00.402Z,99.99
2019-01-26T04:33:00.391Z,99.99
2019-01-26T04:34:00.384Z,99.99
2019-01-26T04:35:00.373Z,99.99
2019-01-26T04:36:00.361Z,99.99
2019-01-26T04:37:00.350Z,99.99
2019-01-26T04:38:00.341Z,99.99
2019-01-26T04:39:00.329Z,99.99
2019-01-26T04:40:00.318Z,99.99
2019-01-26T04:41:00.310Z,99.99
2019-01-26T04:42:00.346Z,99.99
2019-01-26T04:43:00.287Z,99.99
2019-01-26T04:44:00.276Z,99.99
2019-01-26T04:45:00.277Z,99.99
2019-01-26T04:46:00.260Z,99.99
2019-01-26T04:47:00.247Z,99.99
2019-01-26T04:48:00.235Z,99.99
2019-01-26T04:49:00.226Z,99.99
2019-01-26T04:50:00.253Z,99.99
2019-01-26T04:51:00.203Z,99.99
2019-01-26T04:52:00.196Z,99.99
2019-01-26T04:53:00.229Z,99.99
2019-01-26T04:54:00.172Z,99.99
2019-01-26T04:55:00.228Z,99.99
2019-01-26T04:56:00.150Z,99.99
2019-01-26T04:57:00.140Z,99.99
2019-01-26T04:58:00.129Z,99.99
2019-01-26T04:59:00.119Z,99.99
2019-01-26T05:00:00.247Z,99.99
2019-01-26T05:01:00.099Z,99.99
2019-01-26T05:02:00.101Z,99.99
2019-01-26T05:03:00.078Z,99.99
2019-01-26T05:04:00.066Z,99.99
2019-01-26T05:05:00.056Z,99.99
2019-01-26T05:06:00.048Z,99.99
2019-01-26T05:07:00.035Z,99.99
2019-01-26T05:08:00.024Z,99.99
2019-01-26T05:09:00.015Z,99.99
2019-01-26T05:10:00.004Z,99.99
2019-01-26T05:10:59.997Z,99.99
2019-01-26T05:11:59.991Z,99.99
2019-01-26T05:12:59.971Z,99.99
2019-01-26T05:13:59.961Z,99.99
2019-01-26T05:14:59.984Z,99.99
2019-01-26T05:15:59.942Z,99.99
2019-01-26T05:16:59.934Z,99.99
2019-01-26T05:17:59.918Z,99.99
2019-01-26T05:18:59.912Z,99.99
2019-01-26T05:19:59.899Z,99.99
2019-01-26T05:20:59.887Z,99.99
2019-01-26T05:21:59.877Z,99.99
2019-01-26T05:22:59.866Z,99.99
2019-01-26T05:23:59.858Z,99.99
2019-01-26T05:24:59.847Z,99.99
2019-01-26T05:25:59.836Z,99.99
2019-01-26T05:26:59.826Z,99.99
2019-01-26T05:27:59.816Z,99.99
2019-01-26T05:28:59.804Z,99.99
2019-01-26T05:29:59.803Z,99.99
2019-01-26T05:30:59.786Z,99.99
2019-01-26T05:31:59.773Z,99.99
2019-01-26T05:32:59.763Z,99.99
2019-01-26T05:33:59.755Z,99.99
2019-01-26T05:34:59.741Z,99.99
2019-01-26T05:35:59.734Z,99.99
2019-01-26T05:36:59.720Z,99.99
2019-01-26T05:37:59.712Z,99.99
2019-01-26T05:38:59.707Z,99.99
2019-01-26T05:39:59.731Z,99.99
2019-01-26T05:40:59.679Z,99.99
2019-01-26T05:41:59.670Z,99.99
2019-01-26T05:42:59.658Z,99.99
2019-01-26T05:43:59.648Z,99.99
2019-01-26T05:44:59.639Z,99.99
2019-01-26T05:45:59.627Z,99.99
2019-01-26T05:46:59.617Z,99.99
2019-01-26T05:47:59.605Z,99.99
2019-01-26T05:48:59.596Z,99.99
2019-01-26T05:49:59.590Z,99.99
2019-01-26T05:50:59.575Z,99.99
2019-01-26T05:51:59.574Z,99.99
2019-01-26T05:52:59.553Z,99.99
2019-01-26T05:53:59.544Z,99.99
2019-01-26T05:54:59.535Z,99.99
2019-01-26T05:55:59.522Z,99.99
2019-01-26T05:56:59.513Z,99.99
2019-01-26T05:57:59.504Z,99.99
2019-01-26T05:58:59.493Z,99.99
2019-01-26T05:59:59.480Z,99.99
2019-01-26T06:00:59.472Z,99.99
2019-01-26T06:01:59.460Z,99.99
2019-01-26T06:02:59.453Z,99.99
2019-01-26T06:03:59.440Z,99.99
2019-01-26T06:04:59.429Z,99.99
2019-01-26T06:05:59.417Z,99.99
2019-01-26T06:06:59.408Z,99.99
2019-01-26T06:07:59.398Z,99.99
2019-01-26T06:08:59.385Z,99.99
2019-01-26T06:09:59.376Z,99.99
2019-01-26T06:10:59.365Z,99.99
2019-01-26T06:11:59.355Z,99.99
2019-01-26T06:12:59.347Z,99.99
2019-01-26T06:13:59.336Z,99.99
2019-01-26T06:14:59.335Z,99.99
2019-01-26T06:15:59.313Z,99.99
2019-01-26T06:16:59.302Z,99.99
2019-01-26T06:17:59.293Z,99.99
2019-01-26T06:18:59.280Z,99.99
2019-01-26T06:19:59.276Z,99.99
2019-01-26T06:20:59.261Z,99.99
2019-01-26T06:21:59.250Z,99.99
2019-01-26T06:22:59.242Z,99.99
2019-01-26T06:23:59.229Z,99.99
2019-01-26T06:24:59.217Z,99.99
2019-01-26T06:25:59.207Z,99.99
2019-01-26T06:26:59.200Z,99.99
2019-01-26T06:27:59.188Z,99.99
2019-01-26T06:28:59.176Z,99.99
2019-01-26T06:29:59.167Z,99.99
2019-01-26T06:30:59.156Z,99.99
2019-01-26T06:31:59.145Z,99.99
2019-01-26T06:32:59.139Z,99.99
2019-01-26T06:33:59.133Z,99.99
2019-01-26T06:34:59.114Z,99.99
2019-01-26T06:35:59.106Z,99.99
2019-01-26T06:36:59.093Z,99.99
2019-01-26T06:37:59.085Z,99.99
2019-01-26T06:38:59.073Z,99.99
2019-01-26T06:39:59.062Z,99.99
2019-01-26T06:40:59.055Z,99.99
2019-01-26T06:41:59.042Z,99.99
2019-01-26T06:42:59.029Z,99.99
2019-01-26T06:43:59.020Z,99.99
2019-01-26T06:44:59.011Z,99.99
2019-01-26T06:45:59.000Z,99.99
2019-01-26T06:46:58.987Z,99.99
2019-01-26T06:48:02.213Z,99.99
2019-01-26T06:48:58.970Z,99.99
2019-01-26T06:49:58.961Z,99.99
2019-01-26T06:50:58.950Z,99.99
2019-01-26T06:51:58.935Z,99.99
2019-01-26T06:52:58.932Z,99.99
2019-01-26T06:53:58.916Z,99.99
2019-01-26T06:54:58.904Z,99.99
2019-01-26T06:55:58.895Z,99.99
2019-01-26T06:56:58.883Z,99.99
2019-01-26T06:57:58.873Z,99.99
2019-01-26T06:58:58.866Z,99.99
2019-01-26T06:59:58.853Z,99.99
2019-01-26T07:00:58.861Z,99.99
2019-01-26T07:01:58.832Z,99.99
2019-01-26T07:02:58.824Z,99.99
2019-01-26T07:03:58.810Z,99.99
2019-01-26T07:04:58.801Z,99.99
2019-01-26T07:05:58.793Z,99.99
2019-01-26T07:06:58.780Z,99.99
2019-01-26T07:07:58.767Z,99.99
2019-01-26T07:08:58.758Z,99.99
2019-01-26T07:09:58.746Z,99.99
2019-01-26T07:10:58.738Z,99.99
2019-01-26T07:11:58.726Z,99.99
2019-01-26T07:12:58.716Z,99.99
2019-01-26T07:13:58.709Z,99.99
2019-01-26T07:14:58.694Z,99.99
2019-01-26T07:15:58.687Z,99.99
2019-01-26T07:16:58.678Z,99.99
2019-01-26T07:17:58.663Z,99.99
2019-01-26T07:18:58.654Z,99.99
2019-01-26T07:19:58.643Z,99.99
2019-01-26T07:20:58.633Z,99.99
2019-01-26T07:21:58.625Z,99.99
2019-01-26T07:22:58.610Z,99.99
2019-01-26T07:23:58.602Z,99.99
2019-01-26T07:24:58.591Z,99.99
2019-01-26T07:25:58.578Z,99.99
2019-01-26T07:26:58.569Z,99.99
2019-01-26T07:27:58.562Z,99.99
2019-01-26T07:28:58.557Z,99.99
2019-01-26T07:29:58.539Z,99.99
2019-01-26T07:30:58.528Z,99.99
2019-01-26T07:31:58.516Z,99.99
2019-01-26T07:32:58.508Z,99.99
2019-01-26T07:33:58.497Z,99.99
2019-01-26T07:34:58.485Z,99.99
2019-01-26T07:35:58.477Z,99.99
2019-01-26T07:36:58.464Z,99.99
2019-01-26T07:37:58.453Z,99.99
2019-01-26T07:38:58.442Z,99.99
2019-01-26T07:39:58.431Z,99.99
2019-01-26T07:40:58.425Z,99.99
2019-01-26T07:41:58.412Z,99.99
2019-01-26T07:42:58.402Z,99.99
2019-01-26T07:43:58.395Z,99.99
2019-01-26T07:44:58.380Z,99.99
2019-01-26T07:45:58.369Z,99.99
2019-01-26T07:46:58.361Z,99.99
2019-01-26T07:47:58.348Z,99.99
2019-01-26T07:48:58.340Z,99.99
2019-01-26T07:49:58.329Z,99.99
2019-01-26T07:50:58.318Z,99.99
2019-01-26T07:51:58.308Z,99.99
2019-01-26T07:52:58.296Z,99.99
2019-01-26T07:53:58.285Z,99.99
2019-01-26T07:54:58.282Z,99.99
2019-01-26T07:55:58.266Z,99.99
2019-01-26T07:56:58.252Z,99.99
2019-01-26T07:57:58.247Z,99.99
2019-01-26T07:58:58.232Z,99.99
2019-01-26T07:59:58.225Z,99.99
2019-01-26T08:00:58.217Z,99.99
2019-01-26T08:01:58.200Z,99.99
2019-01-26T08:02:58.189Z,99.99
2019-01-26T08:03:58.181Z,99.99
2019-01-26T08:04:58.169Z,99.99
2019-01-26T08:05:58.159Z,99.99
2019-01-26T08:06:58.153Z,99.99
2019-01-26T08:07:58.137Z,99.99
2019-01-26T08:08:58.530Z,99.99
2019-01-26T08:09:58.119Z,99.99
2019-01-26T08:10:58.108Z,99.99
2019-01-26T08:11:58.096Z,99.99
2019-01-26T08:12:58.092Z,99.99
2019-01-26T08:13:58.077Z,99.99
2019-01-26T08:14:58.065Z,99.99
2019-01-26T08:15:58.056Z,99.99
2019-01-26T08:16:58.043Z,99.99
2019-01-26T08:17:58.033Z,99.99
2019-01-26T08:18:58.030Z,99.99
2019-01-26T08:19:58.014Z,99.99
2019-01-26T08:20:58.004Z,99.99
2019-01-26T08:21:57.993Z,99.99
2019-01-26T08:22:57.985Z,99.99
2019-01-26T08:23:57.971Z,99.99
2019-01-26T08:24:57.968Z,99.99
2019-01-26T08:25:57.952Z,99.99
2019-01-26T08:26:57.942Z,99.99
2019-01-26T08:27:57.929Z,99.99
2019-01-26T08:28:57.918Z,99.99
2019-01-26T08:29:57.910Z,99.99
2019-01-26T08:30:57.897Z,99.99
2019-01-26T08:31:57.887Z,99.99
2019-01-26T08:32:57.883Z,99.99
2019-01-26T08:33:57.864Z,99.99
2019-01-26T08:34:57.854Z,99.99
2019-01-26T08:35:57.843Z,99.99
2019-01-26T08:36:57.836Z,99.99
2019-01-26T08:37:57.825Z,99.99
2019-01-26T08:38:57.817Z,99.99
2019-01-26T08:39:57.802Z,99.99
2019-01-26T08:40:57.792Z,99.99
2019-01-26T08:41:57.783Z,99.99
2019-01-26T08:42:57.772Z,99.99
2019-01-26T08:43:57.759Z,99.99
2019-01-26T08:44:57.748Z,99.99
2019-01-26T08:45:57.741Z,99.99
2019-01-26T08:46:57.730Z,99.99
2019-01-26T08:47:57.718Z,99.99
2019-01-26T08:48:57.712Z,99.99
2019-01-26T08:49:57.697Z,99.99
2019-01-26T08:50:57.686Z,99.99
2019-01-26T08:51:57.674Z,99.99
2019-01-26T08:52:57.670Z,99.99
2019-01-26T08:53:57.652Z,99.99
2019-01-26T08:54:57.657Z,99.99
2019-01-26T08:55:57.633Z,99.99
2019-01-26T08:56:57.623Z,99.99
2019-01-26T08:57:57.613Z,99.99
2019-01-26T08:58:57.603Z,99.99
2019-01-26T08:59:57.593Z,99.99
2019-01-26T09:00:57.583Z,99.99
2019-01-26T09:01:59.093Z,99.99
2019-01-26T09:02:57.559Z,99.99
2019-01-26T09:03:57.549Z,99.99
2019-01-26T09:04:57.540Z,99.99
2019-01-26T09:05:57.527Z,99.99
2019-01-26T09:06:57.519Z,99.99
2019-01-26T09:07:57.510Z,99.99
2019-01-26T09:08:57.495Z,99.99
2019-01-26T09:09:57.485Z,99.99
2019-01-26T09:10:57.485Z,99.99
2019-01-26T09:11:57.467Z,99.99
2019-01-26T09:12:57.456Z,99.99
2019-01-26T09:13:57.444Z,99.99
2019-01-26T09:14:57.433Z,99.99
2019-01-26T09:15:57.424Z,99.99
2019-01-26T09:16:57.417Z,99.99
2019-01-26T09:17:57.415Z,99.99
2019-01-26T09:18:57.392Z,99.99
2019-01-26T09:19:57.381Z,99.99
2019-01-26T09:20:57.371Z,99.99
2019-01-26T09:21:57.360Z,99.99
2019-01-26T09:22:57.350Z,99.99
2019-01-26T09:23:57.346Z,99.99
2019-01-26T09:24:57.326Z,99.99
2019-01-26T09:25:57.321Z,99.99
2019-01-26T09:26:57.305Z,99.99
2019-01-26T09:27:57.301Z,99.99
2019-01-26T09:28:57.285Z,99.99
2019-01-26T09:29:57.279Z,99.99
2019-01-26T09:30:57.264Z,99.99
2019-01-26T09:31:57.253Z,99.99
2019-01-26T09:32:57.243Z,99.99
2019-01-26T09:33:57.234Z,99.99
2019-01-26T09:34:57.865Z,99.99
2019-01-26T09:35:57.216Z,99.99
2019-01-26T09:36:57.202Z,99.99
2019-01-26T09:37:57.191Z,99.99
2019-01-26T09:38:57.179Z,99.99
2019-01-26T09:39:57.168Z,99.99
2019-01-26T09:40:57.176Z,99.99
2019-01-26T09:41:57.232Z,99.99
2019-01-26T09:42:57.283Z,99.99
2019-01-26T09:43:57.226Z,99.99
2019-01-26T09:44:57.150Z,99.99
2019-01-26T09:45:57.229Z,99.99
2019-01-26T09:46:57.101Z,99.99
2019-01-26T09:47:57.098Z,99.99
2019-01-26T09:48:57.083Z,99.99
2019-01-26T09:49:57.068Z,99.99
2019-01-26T09:50:57.057Z,99.99
2019-01-26T09:51:57.047Z,99.99
2019-01-26T09:52:57.036Z,99.99
2019-01-26T09:53:57.025Z,99.99
2019-01-26T09:54:57.018Z,99.99
2019-01-26T09:55:57.005Z,99.99
2019-01-26T09:56:56.997Z,99.99
2019-01-26T09:57:56.984Z,99.99
2019-01-26T09:58:57.019Z,99.99
2019-01-26T09:59:56.963Z,99.99
2019-01-26T10:00:56.948Z,99.99
2019-01-26T10:01:56.947Z,99.99
2019-01-26T10:02:56.932Z,99.99
2019-01-26T10:03:56.921Z,99.99
2019-01-26T10:04:56.913Z,99.99
2019-01-26T10:05:56.900Z,99.99
2019-01-26T10:06:56.889Z,99.99
2019-01-26T10:07:56.881Z,99.99
2019-01-26T10:08:57.756Z,99.99
2019-01-26T10:09:56.859Z,99.99
2019-01-26T10:10:56.850Z,99.99
2019-01-26T10:11:56.839Z,99.99
2019-01-26T10:12:56.826Z,99.99
2019-01-26T10:13:56.816Z,99.99
2019-01-26T10:14:56.806Z,99.99
2019-01-26T10:15:56.798Z,99.99
2019-01-26T10:16:56.785Z,99.99
2019-01-26T10:17:56.776Z,99.99
2019-01-26T10:18:56.758Z,99.99
2019-01-26T10:19:56.749Z,99.99
2019-01-26T10:20:56.735Z,99.99
2019-01-26T10:21:56.728Z,99.99
2019-01-26T10:22:56.721Z,99.99
2019-01-26T10:23:56.707Z,99.99
2019-01-26T10:24:56.737Z,99.99
2019-01-26T10:25:56.684Z,99.99
2019-01-26T10:26:56.672Z,99.99
2019-01-26T10:27:56.665Z,99.99
2019-01-26T10:28:56.656Z,99.99
2019-01-26T10:29:56.641Z,99.99
2019-01-26T10:30:56.630Z,99.99
2019-01-26T10:31:56.619Z,99.99
2019-01-26T10:32:56.608Z,99.99
2019-01-26T10:33:56.598Z,99.99
2019-01-26T10:34:56.586Z,99.99
2019-01-26T10:35:56.576Z,99.99
2019-01-26T10:36:56.567Z,99.99
2019-01-26T10:37:56.556Z,99.99
2019-01-26T10:38:56.545Z,99.99
2019-01-26T10:39:56.533Z,99.99
2019-01-26T10:40:56.526Z,99.99
2019-01-26T10:41:56.516Z,99.99
2019-01-26T10:42:56.502Z,99.99
2019-01-26T10:43:56.493Z,99.99
2019-01-26T10:44:56.481Z,99.99
2019-01-26T10:45:56.473Z,99.99
2019-01-26T10:46:56.461Z,99.99
2019-01-26T10:47:56.451Z,99.99
2019-01-26T10:49:00.621Z,99.99
2019-01-26T10:49:56.429Z,99.99
2019-01-26T10:50:56.418Z,99.99
2019-01-26T10:51:56.408Z,99.99
2019-01-26T10:52:56.407Z,99.99
2019-01-26T10:53:56.386Z,99.99
2019-01-26T10:54:56.376Z,99.99
2019-01-26T10:55:56.366Z,99.99
2019-01-26T10:56:56.356Z,99.99
2019-01-26T10:57:56.343Z,99.99
2019-01-26T10:58:56.334Z,99.99
2019-01-26T10:59:56.324Z,99.99
2019-01-26T11:00:56.312Z,99.99
2019-01-26T11:01:56.306Z,99.99
2019-01-26T11:02:56.290Z,99.99
2019-01-26T11:03:56.283Z,99.99
2019-01-26T11:04:56.270Z,99.99
2019-01-26T11:05:56.260Z,99.99
2019-01-26T11:06:56.250Z,99.99
2019-01-26T11:07:56.238Z,99.99
2019-01-26T11:08:56.624Z,99.99
2019-01-26T11:09:56.247Z,99.99
2019-01-26T11:10:56.206Z,99.99
2019-01-26T11:11:56.196Z,99.99
2019-01-26T11:12:56.188Z,99.99
2019-01-26T11:13:56.180Z,99.99
2019-01-26T11:14:56.172Z,99.99
2019-01-26T11:15:56.152Z,99.99
2019-01-26T11:16:56.143Z,99.99
2019-01-26T11:17:56.133Z,99.99
2019-01-26T11:18:56.121Z,99.99
2019-01-26T11:19:56.113Z,99.99
2019-01-26T11:20:56.160Z,99.99
2019-01-26T11:21:56.090Z,99.99
2019-01-26T11:22:56.080Z,99.99
2019-01-26T11:23:56.069Z,99.99
2019-01-26T11:24:56.058Z,99.99
2019-01-26T11:25:56.049Z,99.99
2019-01-26T11:26:56.039Z,99.99
2019-01-26T11:27:56.026Z,99.99
2019-01-26T11:28:56.016Z,99.99
2019-01-26T11:29:56.010Z,99.99
2019-01-26T11:30:55.994Z,99.99
2019-01-26T11:31:56.308Z,99.99
2019-01-26T11:32:55.972Z,99.99
2019-01-26T11:33:55.965Z,99.99
2019-01-26T11:34:55.954Z,99.99
2019-01-26T11:35:55.942Z,99.99
2019-01-26T11:36:56.134Z,99.99
2019-01-26T11:37:55.924Z,99.99
2019-01-26T11:38:55.911Z,99.99
2019-01-26T11:39:55.905Z,99.99
2019-01-26T11:40:55.890Z,99.99
2019-01-26T11:41:55.880Z,99.99
2019-01-26T11:42:55.886Z,99.99
2019-01-26T11:43:55.857Z,99.99
2019-01-26T11:44:55.854Z,99.99
2019-01-26T11:45:55.836Z,99.99
2019-01-26T11:46:55.827Z,99.99
2019-01-26T11:47:55.817Z,99.99
2019-01-26T11:48:55.804Z,99.99
2019-01-26T11:49:55.793Z,99.99
2019-01-26T11:50:55.785Z,99.99
2019-01-26T11:51:55.774Z,99.99
2019-01-26T11:52:55.763Z,99.99
2019-01-26T11:53:55.751Z,99.99
2019-01-26T11:54:55.742Z,99.99
2019-01-26T11:55:55.731Z,99.99
2019-01-26T11:56:55.729Z,99.99
2019-01-26T11:57:55.708Z,99.99
2019-01-26T11:58:55.698Z,99.99
2019-01-26T11:59:55.688Z,99.99
2019-01-26T12:00:59.490Z,99.99
2019-01-26T12:01:55.669Z,99.99
2019-01-26T12:02:55.659Z,99.99
2019-01-26T12:03:55.646Z,99.99
2019-01-26T12:04:55.634Z,99.99
2019-01-26T12:05:55.624Z,99.99
2019-01-26T12:06:55.619Z,99.99
2019-01-26T12:07:55.603Z,99.99
2019-01-26T12:08:55.593Z,99.99
2019-01-26T12:09:55.582Z,99.99
2019-01-26T12:10:55.572Z,99.99
2019-01-26T12:11:55.561Z,99.99
2019-01-26T12:12:55.551Z,99.99
2019-01-26T12:13:55.545Z,99.99
2019-01-26T12:14:55.531Z,99.99
2019-01-26T12:15:55.518Z,99.99
2019-01-26T12:16:55.507Z,99.99
2019-01-26T12:17:55.501Z,99.99
2019-01-26T12:18:55.497Z,99.99
2019-01-26T12:19:55.481Z,99.99
2019-01-26T12:20:55.468Z,99.99
2019-01-26T12:21:55.455Z,99.99
2019-01-26T12:22:55.446Z,99.99
2019-01-26T12:23:55.435Z,99.99
2019-01-26T12:24:55.424Z,99.99
2019-01-26T12:25:55.413Z,99.99
2019-01-26T12:26:55.404Z,99.99
2019-01-26T12:27:55.395Z,99.99
2019-01-26T12:28:55.382Z,99.99
2019-01-26T12:29:55.373Z,99.99
2019-01-26T12:30:55.363Z,99.99
2019-01-26T12:31:55.351Z,99.99
2019-01-26T12:32:55.339Z,99.99
2019-01-26T12:33:55.329Z,99.99
2019-01-26T12:34:55.318Z,99.99
2019-01-26T12:35:55.309Z,99.99
2019-01-26T12:36:55.300Z,99.99
2019-01-26T12:37:55.290Z,99.99
2019-01-26T12:38:55.279Z,99.99
2019-01-26T12:39:55.266Z,99.99
2019-01-26T12:40:55.255Z,99.99
2019-01-26T12:41:55.244Z,99.99
2019-01-26T12:42:55.233Z,99.99
2019-01-26T12:43:55.228Z,99.99
2019-01-26T12:44:55.212Z,99.99
2019-01-26T12:45:55.204Z,99.99
2019-01-26T12:46:55.192Z,99.99
2019-01-26T12:47:55.179Z,99.99
2019-01-26T12:48:55.176Z,99.99
2019-01-26T12:49:55.159Z,99.99
2019-01-26T12:50:55.152Z,99.99
2019-01-26T12:51:55.139Z,99.99